sensor_id;sensor_type;location;lat;lon;timestamp;pressure;altitude;pressure_sealevel;temperature;humidity
57894;BME280;43710;47.460;19.034;2023-04-06T06:08:38;100578.81;;;4.71;48.14
57894;BME280;43710;47.460;19.034;2023-04-06T06:11:43;100578.81;;;4.71;48.14
57894;BME280;43710;47.460;19.034;2023-04-06T06:14:46;100582.72;;;4.40;48.07
57894;BME280;43710;47.460;19.034;2023-04-06T06:17:50;100574.50;;;4.42;47.93
57894;BME280;43710;47.460;19.034;2023-04-06T06:20:52;100583.72;;;4.51;47.99
57894;BME280;43710;47.460;19.034;2023-04-06T06:23:56;100574.25;;;4.55;46.92
57894;BME280;43710;47.460;19.034;2023-04-06T06:26:59;100571.44;;;4.62;51.48
57894;BME280;43710;47.460;19.034;2023-04-06T06:30:02;100571.97;;;5.04;46.34
57894;BME280;43710;47.460;19.034;2023-04-06T06:33:05;100572.19;;;5.03;46.76
57894;BME280;43710;47.460;19.034;2023-04-06T06:36:08;100570.41;;;5.20;63.80
57894;BME280;43710;47.460;19.034;2023-04-06T06:39:12;100566.72;;;5.55;73.39
57894;BME280;43710;47.460;19.034;2023-04-06T06:42:14;100566.31;;;5.63;48.83
57894;BME280;43710;47.460;19.034;2023-04-06T06:45:17;100554.69;;;5.52;44.76
57894;BME280;43710;47.460;19.034;2023-04-06T06:48:20;100551.00;;;5.36;45.47
57894;BME280;43710;47.460;19.034;2023-04-06T06:51:22;100553.34;;;5.50;44.14
57894;BME280;43710;47.460;19.034;2023-04-06T06:54:24;100549.37;;;5.52;43.83
57894;BME280;43710;47.460;19.034;2023-04-06T06:57:27;100546.16;;;5.67;60.59
57894;BME280;43710;47.460;19.034;2023-04-06T07:00:30;100542.09;;;5.98;49.40
57894;BME280;43710;47.460;19.034;2023-04-06T07:03:33;100539.84;;;6.07;41.56
57894;BME280;43710;47.460;19.034;2023-04-06T07:06:35;100536.19;;;5.40;40.45
57894;BME280;43710;47.460;19.034;2023-04-06T07:09:38;100546.56;;;5.59;40.38
57894;BME280;43710;47.460;19.034;2023-04-06T07:12:41;100546.97;;;5.68;40.88
57894;BME280;43710;47.460;19.034;2023-04-06T07:15:43;100550.34;;;5.80;41.90
57894;BME280;43710;47.460;19.034;2023-04-06T07:18:46;100547.03;;;5.56;39.95
57894;BME280;43710;47.460;19.034;2023-04-06T07:21:49;100551.38;;;5.62;53.07
57894;BME280;43710;47.460;19.034;2023-04-06T07:24:51;100551.12;;;5.80;47.95
57894;BME280;43710;47.460;19.034;2023-04-06T07:27:54;100548.03;;;5.50;40.61
57894;BME280;43710;47.460;19.034;2023-04-06T07:30:56;100554.63;;;5.64;41.93
57894;BME280;43710;47.460;19.034;2023-04-06T07:33:59;100554.34;;;5.82;44.31
57894;BME280;43710;47.460;19.034;2023-04-06T07:37:02;100546.94;;;5.84;40.06
57894;BME280;43710;47.460;19.034;2023-04-06T07:40:06;100544.94;;;5.58;42.52
57894;BME280;43710;47.460;19.034;2023-04-06T07:43:08;100534.16;;;5.64;41.88
57894;BME280;43710;47.460;19.034;2023-04-06T07:46:11;100530.22;;;5.89;42.52
57894;BME280;43710;47.460;19.034;2023-04-06T07:49:13;100541.03;;;5.82;39.17
57894;BME280;43710;47.460;19.034;2023-04-06T07:52:15;100544.16;;;5.57;39.48
57894;BME280;43710;47.460;19.034;2023-04-06T07:55:19;100537.47;;;5.38;39.73
57894;BME280;43710;47.460;19.034;2023-04-06T07:58:22;100534.94;;;5.65;45.19
57894;BME280;43710;47.460;19.034;2023-04-06T08:01:24;100531.78;;;5.85;40.97
57894;BME280;43710;47.460;19.034;2023-04-06T08:04:27;100536.22;;;5.79;39.68
57894;BME280;43710;47.460;19.034;2023-04-06T08:07:29;100531.06;;;5.56;43.89
57894;BME280;43710;47.460;19.034;2023-04-06T08:10:32;100540.19;;;5.77;43.45
57894;BME280;43710;47.460;19.034;2023-04-06T08:13:36;100533.50;;;5.74;39.86
57894;BME280;43710;47.460;19.034;2023-04-06T08:16:38;100536.22;;;5.62;39.86
57894;BME280;43710;47.460;19.034;2023-04-06T08:19:43;100535.19;;;5.97;40.27
57894;BME280;43710;47.460;19.034;2023-04-06T08:22:46;100538.16;;;5.84;39.51
57894;BME280;43710;47.460;19.034;2023-04-06T08:25:48;100541.16;;;5.54;41.72
57894;BME280;43710;47.460;19.034;2023-04-06T08:28:51;100531.34;;;5.37;40.54
57894;BME280;43710;47.460;19.034;2023-04-06T08:31:53;100533.84;;;5.27;42.50
57894;BME280;43710;47.460;19.034;2023-04-06T08:34:55;100543.03;;;5.36;41.29
57894;BME280;43710;47.460;19.034;2023-04-06T08:37:58;100526.16;;;5.64;44.96
57894;BME280;43710;47.460;19.034;2023-04-06T08:41:00;100529.19;;;5.90;40.97
57894;BME280;43710;47.460;19.034;2023-04-06T08:44:09;100524.22;;;6.16;42.31
57894;BME280;43710;47.460;19.034;2023-04-06T08:47:12;100509.62;;;5.96;43.10
57894;BME280;43710;47.460;19.034;2023-04-06T08:50:16;100508.78;;;5.96;41.28
57894;BME280;43710;47.460;19.034;2023-04-06T08:53:19;100516.78;;;5.96;45.00
57894;BME280;43710;47.460;19.034;2023-04-06T08:56:26;100512.09;;;6.03;40.29
57894;BME280;43710;47.460;19.034;2023-04-06T08:59:29;100505.44;;;5.83;39.53
57894;BME280;43710;47.460;19.034;2023-04-06T09:02:32;100510.56;;;6.07;42.55
57894;BME280;43710;47.460;19.034;2023-04-06T09:05:35;100510.59;;;6.12;42.52
57894;BME280;43710;47.460;19.034;2023-04-06T09:08:39;100503.94;;;6.58;49.00
57894;BME280;43710;47.460;19.034;2023-04-06T09:11:49;100505.13;;;6.68;39.85
57894;BME280;43710;47.460;19.034;2023-04-06T09:14:52;100497.69;;;6.70;39.58
57894;BME280;43710;47.460;19.034;2023-04-06T09:17:54;100499.25;;;6.66;38.76
57894;BME280;43710;47.460;19.034;2023-04-06T09:20:59;100493.25;;;6.80;39.27
57894;BME280;43710;47.460;19.034;2023-04-06T09:24:02;100493.72;;;6.72;38.84
57894;BME280;43710;47.460;19.034;2023-04-06T09:27:05;100475.88;;;6.73;44.28
57894;BME280;43710;47.460;19.034;2023-04-06T09:30:10;100474.25;;;6.99;37.51
57894;BME280;43710;47.460;19.034;2023-04-06T09:33:23;100483.88;;;7.80;61.10
57894;BME280;43710;47.460;19.034;2023-04-06T09:36:34;100472.75;;;7.98;58.25
57894;BME280;43710;47.460;19.034;2023-04-06T09:39:36;100464.44;;;7.94;39.74
57894;BME280;43710;47.460;19.034;2023-04-06T09:42:44;100466.03;;;7.90;38.77
57894;BME280;43710;47.460;19.034;2023-04-06T09:45:47;100469.19;;;8.40;51.54
57894;BME280;43710;47.460;19.034;2023-04-06T09:48:50;100466.00;;;8.48;49.24
57894;BME280;43710;47.460;19.034;2023-04-06T09:51:58;100451.47;;;8.18;39.42
57894;BME280;43710;47.460;19.034;2023-04-06T09:55:03;100455.84;;;7.82;36.48
57894;BME280;43710;47.460;19.034;2023-04-06T09:58:09;100452.69;;;7.90;36.88
57894;BME280;43710;47.460;19.034;2023-04-06T10:01:15;100456.38;;;7.84;38.93
57894;BME280;43710;47.460;19.034;2023-04-06T10:04:21;100444.34;;;7.76;36.78
57894;BME280;43710;47.460;19.034;2023-04-06T10:07:26;100452.47;;;8.07;42.22
57894;BME280;43710;47.460;19.034;2023-04-06T10:10:29;100453.38;;;8.28;37.51
57894;BME280;43710;47.460;19.034;2023-04-06T10:13:32;100438.62;;;8.15;37.00
57894;BME280;43710;47.460;19.034;2023-04-06T10:16:35;100443.00;;;8.42;42.05
57894;BME280;43710;47.460;19.034;2023-04-06T10:19:49;100432.59;;;8.51;36.57
57894;BME280;43710;47.460;19.034;2023-04-06T10:23:05;100430.34;;;8.17;34.96
57894;BME280;43710;47.460;19.034;2023-04-06T10:26:17;100432.97;;;7.96;35.23
57894;BME280;43710;47.460;19.034;2023-04-06T10:29:22;100426.22;;;7.84;35.19
57894;BME280;43710;47.460;19.034;2023-04-06T10:32:35;100422.84;;;7.98;36.35
57894;BME280;43710;47.460;19.034;2023-04-06T10:35:38;100423.25;;;8.53;40.27
57894;BME280;43710;47.460;19.034;2023-04-06T10:38:42;100423.25;;;8.53;38.90
57894;BME280;43710;47.460;19.034;2023-04-06T10:41:45;100418.47;;;8.55;35.56
57894;BME280;43710;47.460;19.034;2023-04-06T10:44:50;100414.72;;;8.51;36.71
57894;BME280;43710;47.460;19.034;2023-04-06T10:47:53;100415.25;;;8.48;35.85
57894;BME280;43710;47.460;19.034;2023-04-06T10:50:56;100397.28;;;8.28;33.86
57894;BME280;43710;47.460;19.034;2023-04-06T10:53:59;100394.03;;;8.21;35.44
57894;BME280;43710;47.460;19.034;2023-04-06T10:57:01;100398.62;;;8.36;35.31
57894;BME280;43710;47.460;19.034;2023-04-06T11:00:05;100388.25;;;8.50;35.69
57894;BME280;43710;47.460;19.034;2023-04-06T11:03:08;100404.53;;;8.38;35.53
